Time;durP1;ratioP1;P1;durP2;ratioP2;P2;SDS_P1;SDS_P2;PMS_P1;PMS_P2;Temp;Humidity;BMP_temperature;BMP_pressure;BME280_temperature;BME280_humidity;BME280_pressure;Samples;Min_cycle;Max_cycle;Signal;HPM_P1;HPM_P2
2023/01/08 00:01:58;;;;;;;20.40;14.48;;;;;;;;;;5013879;28;20022;-77
2023/01/08 00:04:24;;;;;;;20.35;14.30;;;;;;;;;;5013666;28;20472;-77
2023/01/08 00:06:50;;;;;;;16.23;12.23;;;;;;;;;;5013859;28;20029;-76
2023/01/08 00:09:16;;;;;;;16.58;12.27;;;;;;;;;;5013772;28;20045;-76
2023/01/08 00:11:43;;;;;;;18.98;13.18;;;;;;;;;;5013877;28;20028;-77
2023/01/08 00:14:09;;;;;;;19.25;14.02;;;;;;;;;;5012306;28;20053;-76
2023/01/08 00:16:35;;;;;;;20.25;14.88;;;;;;;;;;5013546;28;20025;-75
2023/01/08 00:19:01;;;;;;;19.48;15.10;;;;;;;;;;5013370;28;20515;-75
2023/01/08 00:21:27;;;;;;;19.45;14.73;;;;;;;;;;5013598;28;20029;-75
2023/01/08 00:23:53;;;;;;;22.35;15.38;;;;;;;;;;5013913;28;20022;-77
2023/01/08 00:26:19;;;;;;;19.63;15.27;;;;;;;;;;5013570;28;20025;-76
2023/01/08 00:28:45;;;;;;;20.75;14.85;;;;;;;;;;5013438;28;20495;-76
2023/01/08 00:31:12;;;;;;;19.25;14.50;;;;;;;;;;5013381;28;20022;-75
2023/01/08 00:33:39;;;;;;;21.13;14.93;;;;;;;;;;5013759;28;20079;-74
2023/01/08 00:36:09;;;;;;;20.25;15.05;;;;;;;;;;5013648;28;20094;-76
2023/01/08 00:38:35;;;;;;;20.73;15.40;;;;;;;;;;4997866;28;20018;-76
2023/01/08 00:41:01;;;;;;;19.35;15.02;;;;;;;;;;5013144;28;20100;-76
2023/01/08 00:43:27;;;;;;;21.67;15.30;;;;;;;;;;5013208;28;20045;-76
2023/01/08 00:45:53;;;;;;;23.02;15.25;;;;;;;;;;5012933;28;20022;-76
2023/01/08 00:48:21;;;;;;;24.08;15.82;;;;;;;;;;5013060;28;20030;-75
2023/01/08 00:50:47;;;;;;;23.42;15.73;;;;;;;;;;5013097;28;20024;-75
2023/01/08 00:53:13;;;;;;;22.52;16.13;;;;;;;;;;5012933;28;20109;-76
2023/01/08 00:55:39;;;;;;;19.70;14.05;;;;;;;;;;5011347;28;20101;-76
2023/01/08 00:58:05;;;;;;;20.40;14.68;;;;;;;;;;5011327;28;20021;-75
2023/01/08 01:00:31;;;;;;;21.65;15.38;;;;;;;;;;5012248;28;20121;-75
2023/01/08 01:02:57;;;;;;;19.70;14.60;;;;;;;;;;5011990;28;20030;-75
2023/01/08 01:05:23;;;;;;;20.08;14.98;;;;;;;;;;5011121;28;20022;-75
2023/01/08 01:07:49;;;;;;;20.60;14.95;;;;;;;;;;5010060;28;20032;-76
2023/01/08 01:10:15;;;;;;;20.63;14.23;;;;;;;;;;5012057;28;20749;-76
2023/01/08 01:12:41;;;;;;;17.65;13.57;;;;;;;;;;5011962;28;20072;-76
2023/01/08 01:15:09;;;;;;;19.02;13.90;;;;;;;;;;5011868;28;20036;-76
2023/01/08 01:17:37;;;;;;;18.10;13.35;;;;;;;;;;5011220;28;20029;-77
2023/01/08 01:20:03;;;;;;;18.10;12.95;;;;;;;;;;5012540;28;20037;-76
2023/01/08 01:22:29;;;;;;;19.00;13.95;;;;;;;;;;5012656;28;20076;-76
2023/01/08 01:24:56;;;;;;;20.13;13.70;;;;;;;;;;5012542;28;20025;-76
2023/01/08 01:27:22;;;;;;;19.30;13.85;;;;;;;;;;5011228;28;20069;-76
2023/01/08 01:29:48;;;;;;;16.65;12.77;;;;;;;;;;5011670;28;20084;-76
2023/01/08 01:32:15;;;;;;;15.15;11.75;;;;;;;;;;5012002;28;20026;-76
2023/01/08 01:34:41;;;;;;;17.02;12.68;;;;;;;;;;5012200;28;20034;-76
2023/01/08 01:37:07;;;;;;;17.45;12.73;;;;;;;;;;5011289;28;20032;-74
2023/01/08 01:39:33;;;;;;;21.58;12.98;;;;;;;;;;5011755;28;20026;-76
2023/01/08 01:41:59;;;;;;;18.52;12.68;;;;;;;;;;5011462;28;20044;-75
2023/01/08 01:44:37;;;;;;;20.83;14.05;;;;;;;;;;5011284;28;20469;-72
2023/01/08 01:47:09;;;;;;;20.52;13.38;;;;;;;;;;5011294;28;20025;-72
2023/01/08 01:49:36;;;;;;;16.95;12.98;;;;;;;;;;5011841;28;20029;-75
2023/01/08 01:52:03;;;;;;;18.88;13.52;;;;;;;;;;5011266;28;20030;-74
2023/01/08 01:54:30;;;;;;;22.23;14.15;;;;;;;;;;5011357;28;20018;-75
2023/01/08 01:56:56;;;;;;;15.98;12.65;;;;;;;;;;5011423;28;20034;-75
2023/01/08 01:59:22;;;;;;;19.48;14.35;;;;;;;;;;5010969;28;20033;-76
2023/01/08 02:01:49;;;;;;;17.63;13.38;;;;;;;;;;5011105;28;20069;-76
2023/01/08 02:04:15;;;;;;;18.50;14.07;;;;;;;;;;5011174;28;20061;-75
2023/01/08 02:07:03;;;;;;;16.25;12.68;;;;;;;;;;5011633;28;20466;-75
2023/01/08 02:09:40;;;;;;;18.15;13.50;;;;;;;;;;5011636;28;20068;-74
2023/01/08 02:12:22;;;;;;;19.38;14.02;;;;;;;;;;5011414;28;20049;-75
2023/01/08 02:14:48;;;;;;;19.75;13.32;;;;;;;;;;5011376;28;20497;-75
2023/01/08 02:17:16;;;;;;;23.20;13.93;;;;;;;;;;5009259;28;20060;-75
2023/01/08 02:19:47;;;;;;;17.38;12.98;;;;;;;;;;5009790;28;20497;-75
2023/01/08 02:22:19;;;;;;;16.20;11.63;;;;;;;;;;5011142;28;20022;-75
2023/01/08 02:24:45;;;;;;;18.67;14.18;;;;;;;;;;5011228;28;20173;-75
2023/01/08 02:27:12;;;;;;;19.75;14.45;;;;;;;;;;5010782;28;20545;-74
2023/01/08 02:29:39;;;;;;;20.00;13.50;;;;;;;;;;5010402;28;20048;-73
2023/01/08 02:32:05;;;;;;;18.70;13.45;;;;;;;;;;5011255;28;20026;-75
2023/01/08 02:34:31;;;;;;;18.85;13.50;;;;;;;;;;4995679;28;20064;-76
2023/01/08 02:36:57;;;;;;;24.52;14.50;;;;;;;;;;5011479;28;20029;-74
2023/01/08 02:39:26;;;;;;;16.85;13.73;;;;;;;;;;5010857;28;20032;-75
2023/01/08 02:42:06;;;;;;;20.30;14.10;;;;;;;;;;5010377;28;20022;-74
2023/01/08 02:44:32;;;;;;;20.30;14.73;;;;;;;;;;4996225;28;20456;-76
2023/01/08 02:46:59;;;;;;;19.48;14.98;;;;;;;;;;5011525;28;20046;-73
2023/01/08 02:49:30;;;;;;;19.40;14.65;;;;;;;;;;5010855;28;20105;-75
2023/01/08 02:51:57;;;;;;;18.83;13.53;;;;;;;;;;5011979;28;20026;-76
2023/01/08 02:54:25;;;;;;;21.75;14.95;;;;;;;;;;5011196;28;20363;-75
2023/01/08 02:56:54;;;;;;;20.13;15.20;;;;;;;;;;5011271;28;20022;-76
2023/01/08 02:59:22;;;;;;;19.80;15.82;;;;;;;;;;5010826;28;20034;-75
2023/01/08 03:01:48;;;;;;;22.52;15.38;;;;;;;;;;5011176;28;20045;-75
2023/01/08 03:04:19;;;;;;;24.35;17.20;;;;;;;;;;5011117;28;20022;-76
2023/01/08 03:06:45;;;;;;;24.10;16.52;;;;;;;;;;5010025;28;20025;-75
2023/01/08 03:09:11;;;;;;;26.13;16.75;;;;;;;;;;5010992;28;20057;-76
2023/01/08 03:11:59;;;;;;;26.33;17.98;;;;;;;;;;5011035;28;20662;-75
2023/01/08 03:14:32;;;;;;;27.55;18.25;;;;;;;;;;5011380;28;20387;-75
2023/01/08 03:17:01;;;;;;;26.48;18.33;;;;;;;;;;5011084;28;20022;-75
2023/01/08 03:19:40;;;;;;;21.60;16.88;;;;;;;;;;5010931;28;20477;-75
2023/01/08 03:22:08;;;;;;;24.13;16.75;;;;;;;;;;5010869;28;20038;-75
2023/01/08 03:24:34;;;;;;;24.30;17.05;;;;;;;;;;5011032;28;20069;-74
2023/01/08 03:27:03;;;;;;;26.13;17.00;;;;;;;;;;5011082;28;20037;-75
2023/01/08 03:29:30;;;;;;;27.15;18.23;;;;;;;;;;5010827;28;20026;-75
2023/01/08 03:32:01;;;;;;;27.35;17.80;;;;;;;;;;5009489;28;20507;-72
2023/01/08 03:34:27;;;;;;;19.58;14.15;;;;;;;;;;5010974;28;20548;-75
2023/01/08 03:36:55;;;;;;;24.30;17.63;;;;;;;;;;5011401;28;20113;-75
2023/01/08 03:39:33;;;;;;;22.38;16.52;;;;;;;;;;5010907;28;20030;-75
2023/01/08 03:42:02;;;;;;;26.80;18.38;;;;;;;;;;5013586;28;20369;-75
2023/01/08 03:44:28;;;;;;;26.50;18.63;;;;;;;;;;5015113;28;20026;-75
2023/01/08 03:46:55;;;;;;;24.67;17.27;;;;;;;;;;5014515;28;20034;-75
2023/01/08 03:49:22;;;;;;;28.20;20.25;;;;;;;;;;5013012;28;20033;-75
2023/01/08 03:51:48;;;;;;;25.63;18.80;;;;;;;;;;5013828;28;20034;-75
2023/01/08 03:54:16;;;;;;;26.50;19.25;;;;;;;;;;5014514;28;20056;-75
2023/01/08 03:56:42;;;;;;;27.65;19.58;;;;;;;;;;5014299;28;20097;-75
2023/01/08 03:59:08;;;;;;;26.85;19.48;;;;;;;;;;5014253;28;20025;-75
2023/01/08 04:01:34;;;;;;;27.08;19.65;;;;;;;;;;5028787;22;20034;-74
2023/01/08 04:04:00;;;;;;;25.65;18.40;;;;;;;;;;5042011;28;20041;-75
2023/01/08 04:06:26;;;;;;;26.85;19.80;;;;;;;;;;5050936;28;20055;-75
2023/01/08 04:08:52;;;;;;;26.35;18.55;;;;;;;;;;5051301;28;20048;-76
2023/01/08 04:11:18;;;;;;;28.52;19.77;;;;;;;;;;5045815;28;20527;-74
2023/01/08 04:13:44;;;;;;;26.02;18.17;;;;;;;;;;5033947;28;20036;-74
2023/01/08 04:16:10;;;;;;;25.13;18.30;;;;;;;;;;5033302;28;20022;-75
2023/01/08 04:18:36;;;;;;;25.33;17.75;;;;;;;;;;5015308;28;20099;-75
2023/01/08 04:21:02;;;;;;;24.23;17.27;;;;;;;;;;5033313;28;20025;-76
2023/01/08 04:23:28;;;;;;;24.60;18.08;;;;;;;;;;5033160;28;20025;-75
2023/01/08 04:25:54;;;;;;;26.58;17.77;;;;;;;;;;5033266;28;20021;-75
2023/01/08 04:28:21;;;;;;;24.70;17.35;;;;;;;;;;5032881;28;20037;-74
2023/01/08 04:30:47;;;;;;;25.42;18.20;;;;;;;;;;5032983;28;20040;-74
2023/01/08 04:33:13;;;;;;;25.65;17.60;;;;;;;;;;5015471;28;20120;-74
2023/01/08 04:35:39;;;;;;;23.90;17.33;;;;;;;;;;5032908;28;20071;-74
2023/01/08 04:38:05;;;;;;;24.98;18.10;;;;;;;;;;5032923;28;20029;-74
2023/01/08 04:40:32;;;;;;;26.67;18.52;;;;;;;;;;5016661;28;20047;-75
2023/01/08 04:42:58;;;;;;;27.30;18.60;;;;;;;;;;5032796;28;20029;-74
2023/01/08 04:45:24;;;;;;;25.75;18.27;;;;;;;;;;5033005;28;20025;-74
2023/01/08 04:47:57;;;;;;;24.92;17.58;;;;;;;;;;5032407;28;20049;-75
2023/01/08 04:50:23;;;;;;;25.92;18.67;;;;;;;;;;5032343;28;20029;-74
2023/01/08 04:52:49;;;;;;;25.02;18.20;;;;;;;;;;5031785;28;20136;-74
2023/01/08 04:55:15;;;;;;;23.48;17.70;;;;;;;;;;5014864;28;20546;-74
2023/01/08 04:57:41;;;;;;;26.13;17.75;;;;;;;;;;5032146;28;20037;-76
2023/01/08 05:00:07;;;;;;;23.25;17.35;;;;;;;;;;5032748;28;20029;-75
2023/01/08 05:02:33;;;;;;;23.85;17.50;;;;;;;;;;5032311;28;20479;-74
2023/01/08 05:04:59;;;;;;;21.65;16.38;;;;;;;;;;5032478;28;20144;-74
2023/01/08 05:07:25;;;;;;;26.88;17.98;;;;;;;;;;5014456;28;20226;-75
2023/01/08 05:09:51;;;;;;;22.13;16.00;;;;;;;;;;5014654;28;20103;-74
2023/01/08 05:12:18;;;;;;;24.15;17.90;;;;;;;;;;5032027;28;20464;-74
2023/01/08 05:14:44;;;;;;;21.27;16.60;;;;;;;;;;5014437;28;20025;-74
2023/01/08 05:17:10;;;;;;;24.58;18.08;;;;;;;;;;5031819;28;20391;-74
2023/01/08 05:19:36;;;;;;;25.92;18.75;;;;;;;;;;5032094;28;20036;-71
2023/01/08 05:22:02;;;;;;;23.73;16.02;;;;;;;;;;5031968;28;20054;-75
2023/01/08 05:24:28;;;;;;;23.20;17.45;;;;;;;;;;5031923;28;20034;-74
2023/01/08 05:26:54;;;;;;;23.67;16.88;;;;;;;;;;5031770;28;20018;-74
2023/01/08 05:29:20;;;;;;;24.33;18.08;;;;;;;;;;5031839;28;20131;-74
2023/01/08 05:31:46;;;;;;;25.15;18.83;;;;;;;;;;5031908;28;20040;-73
2023/01/08 05:34:12;;;;;;;27.80;19.52;;;;;;;;;;5031706;28;20033;-73
2023/01/08 05:36:38;;;;;;;26.70;20.48;;;;;;;;;;5031675;28;20372;-74
2023/01/08 05:39:04;;;;;;;29.00;19.92;;;;;;;;;;5031439;28;20411;-73
2023/01/08 05:41:30;;;;;;;26.75;19.48;;;;;;;;;;5031997;28;20542;-75
2023/01/08 05:43:56;;;;;;;27.67;19.08;;;;;;;;;;5031641;28;20044;-74
2023/01/08 05:46:22;;;;;;;26.23;19.27;;;;;;;;;;5031791;28;20028;-75
2023/01/08 05:48:48;;;;;;;28.10;18.50;;;;;;;;;;5031298;28;20022;-75
2023/01/08 05:51:14;;;;;;;25.90;18.73;;;;;;;;;;5031756;28;20040;-75
2023/01/08 05:53:40;;;;;;;28.55;20.42;;;;;;;;;;5031400;28;20040;-76
2023/01/08 05:56:07;;;;;;;31.08;20.33;;;;;;;;;;5031264;28;20052;-74
2023/01/08 05:58:33;;;;;;;28.83;21.13;;;;;;;;;;5031127;28;20049;-73
2023/01/08 06:01:05;;;;;;;29.85;19.40;;;;;;;;;;5031391;28;20029;-73
2023/01/08 06:03:31;;;;;;;31.13;20.20;;;;;;;;;;5030893;28;20408;-73
2023/01/08 06:05:58;;;;;;;27.42;19.17;;;;;;;;;;5031055;28;20017;-73
2023/01/08 06:08:24;;;;;;;29.63;20.50;;;;;;;;;;5030900;28;20022;-73
2023/01/08 06:10:50;;;;;;;29.30;20.52;;;;;;;;;;5031327;28;20048;-72
2023/01/08 06:13:16;;;;;;;28.60;20.27;;;;;;;;;;5013451;28;20495;-73
2023/01/08 06:15:42;;;;;;;27.90;19.23;;;;;;;;;;5031272;28;20131;-73
2023/01/08 06:18:08;;;;;;;29.17;19.98;;;;;;;;;;5031219;28;20048;-73
2023/01/08 06:20:34;;;;;;;30.08;20.90;;;;;;;;;;5025755;28;20041;-73
2023/01/08 06:23:00;;;;;;;30.85;20.45;;;;;;;;;;5025845;28;20026;-73
2023/01/08 06:25:26;;;;;;;26.30;18.48;;;;;;;;;;5030762;28;20021;-74
2023/01/08 06:27:52;;;;;;;29.40;20.63;;;;;;;;;;5031441;28;20026;-73
2023/01/08 06:30:19;;;;;;;32.15;21.42;;;;;;;;;;5031919;28;20018;-74
2023/01/08 06:32:45;;;;;;;28.90;20.77;;;;;;;;;;5031669;28;20022;-73
2023/01/08 06:35:11;;;;;;;30.98;21.15;;;;;;;;;;5031567;28;20025;-74
2023/01/08 06:37:37;;;;;;;35.30;23.45;;;;;;;;;;5031752;28;20040;-73
2023/01/08 06:40:03;;;;;;;32.67;21.67;;;;;;;;;;5013374;28;20120;-74
2023/01/08 06:42:29;;;;;;;28.85;20.48;;;;;;;;;;5031366;28;20018;-73
2023/01/08 06:44:55;;;;;;;33.72;22.75;;;;;;;;;;5031004;28;20487;-73
2023/01/08 06:47:21;;;;;;;31.70;22.13;;;;;;;;;;5030686;28;20128;-73
2023/01/08 06:49:47;;;;;;;34.53;22.02;;;;;;;;;;5013427;28;20061;-73
2023/01/08 06:52:13;;;;;;;30.17;20.73;;;;;;;;;;5030846;28;20095;-74
2023/01/08 06:54:39;;;;;;;32.72;21.33;;;;;;;;;;5013314;28;20105;-73
2023/01/08 06:57:05;;;;;;;39.80;22.40;;;;;;;;;;5030797;28;20124;-73
2023/01/08 06:59:31;;;;;;;33.70;21.25;;;;;;;;;;5031152;28;20032;-74
2023/01/08 07:01:57;;;;;;;28.45;19.67;;;;;;;;;;5030795;28;20045;-74
2023/01/08 07:04:23;;;;;;;30.23;20.58;;;;;;;;;;5013225;28;20021;-74
2023/01/08 07:06:49;;;;;;;29.48;19.80;;;;;;;;;;5031299;28;20430;-73
2023/01/08 07:09:15;;;;;;;27.50;19.08;;;;;;;;;;5030672;28;20091;-74
2023/01/08 07:11:42;;;;;;;30.40;20.10;;;;;;;;;;5031016;28;20030;-74
2023/01/08 07:14:08;;;;;;;27.00;18.35;;;;;;;;;;5030682;28;20025;-74
2023/01/08 07:16:34;;;;;;;30.65;19.38;;;;;;;;;;5034059;28;20022;-74
2023/01/08 07:19:00;;;;;;;28.05;19.60;;;;;;;;;;5034075;28;20080;-75
2023/01/08 07:21:26;;;;;;;29.05;21.00;;;;;;;;;;5034116;28;20030;-77
2023/01/08 07:23:52;;;;;;;29.83;19.58;;;;;;;;;;5034606;28;20014;-76
2023/01/08 07:26:18;;;;;;;26.15;18.02;;;;;;;;;;5034411;28;20068;-72
2023/01/08 07:28:44;;;;;;;28.98;18.63;;;;;;;;;;5034005;28;20516;-74
2023/01/08 07:31:10;;;;;;;32.00;19.10;;;;;;;;;;5033094;28;20064;-76
2023/01/08 07:33:36;;;;;;;26.00;17.52;;;;;;;;;;5033434;28;20036;-76
2023/01/08 07:36:03;;;;;;;26.55;18.77;;;;;;;;;;5034084;28;20025;-75
2023/01/08 07:38:29;;;;;;;31.02;19.48;;;;;;;;;;5033582;28;20032;-74
2023/01/08 07:40:56;;;;;;;28.08;19.42;;;;;;;;;;5034156;28;20041;-75
2023/01/08 07:43:22;;;;;;;29.15;18.13;;;;;;;;;;5034084;28;20025;-73
2023/01/08 07:45:48;;;;;;;25.80;18.15;;;;;;;;;;5034204;28;20029;-73
2023/01/08 07:48:15;;;;;;;24.60;17.27;;;;;;;;;;5033547;28;20022;-74
2023/01/08 07:50:42;;;;;;;26.80;18.05;;;;;;;;;;5034031;28;20108;-73
2023/01/08 07:53:08;;;;;;;26.83;17.52;;;;;;;;;;5034090;28;20025;-74
2023/01/08 07:55:34;;;;;;;25.85;17.35;;;;;;;;;;5034134;28;20026;-74
2023/01/08 07:58:00;;;;;;;25.77;17.90;;;;;;;;;;5034293;28;20029;-74
2023/01/08 08:00:26;;;;;;;25.63;17.17;;;;;;;;;;5034036;28;20565;-75
2023/01/08 08:02:52;;;;;;;26.70;17.67;;;;;;;;;;5033840;28;20042;-75
2023/01/08 08:05:18;;;;;;;27.35;17.88;;;;;;;;;;5033804;28;20024;-75
2023/01/08 08:07:44;;;;;;;25.45;17.33;;;;;;;;;;5033334;28;20018;-73
2023/01/08 08:10:10;;;;;;;25.48;17.52;;;;;;;;;;5033691;28;20076;-73
2023/01/08 08:12:37;;;;;;;25.02;17.52;;;;;;;;;;5033616;28;20521;-73
2023/01/08 08:15:03;;;;;;;25.40;17.75;;;;;;;;;;5033415;28;20029;-74
2023/01/08 08:17:29;;;;;;;26.05;17.15;;;;;;;;;;5033276;28;20029;-74
2023/01/08 08:19:55;;;;;;;24.85;17.63;;;;;;;;;;5033356;28;20054;-73
2023/01/08 08:22:21;;;;;;;24.95;17.50;;;;;;;;;;5032990;28;20026;-74
2023/01/08 08:24:47;;;;;;;24.17;16.13;;;;;;;;;;5033804;28;20459;-73
2023/01/08 08:27:13;;;;;;;26.85;18.58;;;;;;;;;;5033083;28;20025;-75
2023/01/08 08:29:39;;;;;;;24.40;16.38;;;;;;;;;;5033367;28;20405;-74
2023/01/08 08:32:05;;;;;;;26.42;17.95;;;;;;;;;;5015571;28;20049;-74
2023/01/08 08:34:32;;;;;;;27.27;17.60;;;;;;;;;;5013210;28;20079;-75
2023/01/08 08:36:58;;;;;;;24.90;16.10;;;;;;;;;;5020591;28;20029;-74
2023/01/08 08:39:24;;;;;;;24.10;15.43;;;;;;;;;;5033176;28;20030;-75
2023/01/08 08:41:50;;;;;;;26.63;15.70;;;;;;;;;;5033328;28;20040;-75
2023/01/08 08:44:16;;;;;;;21.40;15.32;;;;;;;;;;5033108;28;20509;-75
2023/01/08 08:46:42;;;;;;;22.20;15.15;;;;;;;;;;5033055;28;20099;-74
2023/01/08 08:49:08;;;;;;;21.83;14.45;;;;;;;;;;5033142;28;20026;-73
2023/01/08 08:51:34;;;;;;;22.35;14.60;;;;;;;;;;5033058;28;20383;-74
2023/01/08 08:54:00;;;;;;;20.88;15.10;;;;;;;;;;5033312;28;20085;-74
2023/01/08 08:56:28;;;;;;;21.30;15.57;;;;;;;;;;5033673;28;20017;-74
2023/01/08 08:58:54;;;;;;;23.20;13.98;;;;;;;;;;5033065;28;20053;-75
2023/01/08 09:01:20;;;;;;;22.27;14.63;;;;;;;;;;5033408;28;20036;-75
2023/01/08 09:03:46;;;;;;;21.05;14.70;;;;;;;;;;5039415;28;20049;-74
2023/01/08 09:06:13;;;;;;;20.20;14.35;;;;;;;;;;5039796;28;20045;-74
2023/01/08 09:08:39;;;;;;;20.90;13.98;;;;;;;;;;5040060;28;20069;-75
2023/01/08 09:11:05;;;;;;;20.13;14.68;;;;;;;;;;5050277;28;20021;-77
2023/01/08 09:13:31;;;;;;;22.90;14.95;;;;;;;;;;5053420;28;20030;-75
2023/01/08 09:15:58;;;;;;;17.90;13.20;;;;;;;;;;5053457;28;20040;-77
2023/01/08 09:18:24;;;;;;;21.58;14.32;;;;;;;;;;5043516;28;20037;-73
2023/01/08 09:20:50;;;;;;;19.05;12.93;;;;;;;;;;5034690;28;20030;-73
2023/01/08 09:23:16;;;;;;;20.30;13.57;;;;;;;;;;5014054;28;20091;-75
2023/01/08 09:25:42;;;;;;;20.80;13.80;;;;;;;;;;5033569;28;20028;-75
2023/01/08 09:28:11;;;;;;;20.92;12.27;;;;;;;;;;5032190;28;20025;-74
2023/01/08 09:30:37;;;;;;;17.13;12.20;;;;;;;;;;5016705;28;20028;-76
2023/01/08 09:33:04;;;;;;;18.50;12.38;;;;;;;;;;5033521;28;20057;-71
2023/01/08 09:35:31;;;;;;;22.50;12.10;;;;;;;;;;5033332;28;20036;-75
2023/01/08 09:37:57;;;;;;;18.15;12.48;;;;;;;;;;5014636;28;20100;-73
2023/01/08 09:40:43;;;;;;;18.73;12.93;;;;;;;;;;5014741;28;20032;-72
2023/01/08 09:43:15;;;;;;;16.77;11.75;;;;;;;;;;5032053;28;20108;-73
2023/01/08 09:45:41;;;;;;;18.38;12.48;;;;;;;;;;5015440;28;20030;-72
2023/01/08 09:48:11;;;;;;;18.27;11.35;;;;;;;;;;5032780;28;20072;-73
2023/01/08 09:50:37;;;;;;;16.08;11.45;;;;;;;;;;5032745;28;20022;-73
2023/01/08 09:53:04;;;;;;;16.90;12.07;;;;;;;;;;5032008;28;20030;-73
2023/01/08 09:55:32;;;;;;;17.25;11.93;;;;;;;;;;5032494;28;20429;-73
2023/01/08 09:57:59;;;;;;;16.40;11.95;;;;;;;;;;5031478;28;20029;-73
2023/01/08 10:00:29;;;;;;;19.50;11.82;;;;;;;;;;5014985;28;20060;-77
2023/01/08 10:02:56;;;;;;;17.80;11.67;;;;;;;;;;5039690;22;20043;-76
2023/01/08 10:05:23;;;;;;;19.80;13.43;;;;;;;;;;4987003;28;20034;-77
2023/01/08 10:07:49;;;;;;;17.85;12.32;;;;;;;;;;4994083;28;20030;-76
2023/01/08 10:10:27;;;;;;;19.23;12.73;;;;;;;;;;4993907;28;20034;-77
2023/01/08 10:12:54;;;;;;;18.52;12.55;;;;;;;;;;4993918;28;20023;-77
2023/01/08 10:15:21;;;;;;;16.42;12.07;;;;;;;;;;4992702;28;20439;-76
2023/01/08 10:17:50;;;;;;;18.05;11.85;;;;;;;;;;4993189;28;20027;-78
2023/01/08 10:20:16;;;;;;;16.25;11.77;;;;;;;;;;4993121;28;20034;-76
2023/01/08 10:22:43;;;;;;;14.40;11.05;;;;;;;;;;4993048;28;20047;-76
2023/01/08 10:25:09;;;;;;;20.60;11.70;;;;;;;;;;4993105;28;20113;-76
2023/01/08 10:27:47;;;;;;;17.45;11.38;;;;;;;;;;4993274;28;20058;-76
2023/01/08 10:30:36;;;;;;;16.67;10.63;;;;;;;;;;4994987;28;20057;-77
2023/01/08 10:33:19;;;;;;;16.40;11.73;;;;;;;;;;4993851;28;20033;-75
2023/01/08 10:35:51;;;;;;;18.65;12.07;;;;;;;;;;4993887;28;20054;-77
2023/01/08 10:38:26;;;;;;;16.15;11.23;;;;;;;;;;4993030;28;20092;-76
2023/01/08 10:40:53;;;;;;;15.00;11.05;;;;;;;;;;4992525;28;20084;-76
2023/01/08 10:43:24;;;;;;;14.57;10.77;;;;;;;;;;4991258;28;20026;-76
2023/01/08 10:45:55;;;;;;;17.90;12.27;;;;;;;;;;4992349;28;20077;-76
2023/01/08 10:48:21;;;;;;;14.77;11.50;;;;;;;;;;4991268;28;20026;-76
2023/01/08 10:50:47;;;;;;;16.58;11.90;;;;;;;;;;4994695;28;20540;-77
2023/01/08 10:53:27;;;;;;;17.08;11.73;;;;;;;;;;4996904;28;20033;-76
2023/01/08 10:56:01;;;;;;;17.02;12.57;;;;;;;;;;4995089;28;20022;-76
2023/01/08 10:58:28;;;;;;;18.08;11.90;;;;;;;;;;4996106;28;20097;-77
2023/01/08 11:00:56;;;;;;;15.95;11.27;;;;;;;;;;4996745;28;20026;-76
2023/01/08 11:03:28;;;;;;;16.00;11.60;;;;;;;;;;4994954;28;20051;-76
2023/01/08 11:05:54;;;;;;;15.65;11.90;;;;;;;;;;4996082;28;20579;-76
2023/01/08 11:08:21;;;;;;;14.57;10.80;;;;;;;;;;4996325;28;20022;-77
2023/01/08 11:10:55;;;;;;;16.85;11.50;;;;;;;;;;4995612;28;20034;-76
2023/01/08 11:13:21;;;;;;;15.73;11.23;;;;;;;;;;4996082;28;20022;-77
2023/01/08 11:15:57;;;;;;;14.68;10.35;;;;;;;;;;4996144;28;20026;-78
2023/01/08 11:18:24;;;;;;;14.55;11.00;;;;;;;;;;4995695;28;20497;-77
2023/01/08 11:20:51;;;;;;;14.77;11.02;;;;;;;;;;4994433;28;20121;-77
2023/01/08 11:23:21;;;;;;;15.35;10.23;;;;;;;;;;4995500;28;20454;-76
2023/01/08 11:25:51;;;;;;;15.10;10.45;;;;;;;;;;4996238;28;20033;-75
2023/01/08 11:28:21;;;;;;;14.57;10.95;;;;;;;;;;4996088;28;20025;-77
2023/01/08 11:30:50;;;;;;;14.70;10.60;;;;;;;;;;4995057;28;20033;-77
2023/01/08 11:33:20;;;;;;;14.07;10.05;;;;;;;;;;4994545;28;20057;-75
2023/01/08 11:35:49;;;;;;;14.15;10.13;;;;;;;;;;4994700;28;20029;-73
2023/01/08 11:38:15;;;;;;;15.73;10.80;;;;;;;;;;4996143;28;20026;-78
2023/01/08 11:40:45;;;;;;;14.73;11.00;;;;;;;;;;4996354;28;20027;-76
2023/01/08 11:43:21;;;;;;;16.42;11.75;;;;;;;;;;4996347;28;20485;-78
2023/01/08 11:45:50;;;;;;;15.13;10.98;;;;;;;;;;4996254;28;20031;-77
2023/01/08 11:48:16;;;;;;;17.50;11.73;;;;;;;;;;4994877;28;20022;-77
2023/01/08 11:50:54;;;;;;;16.48;11.48;;;;;;;;;;4995939;28;20033;-77
2023/01/08 11:53:23;;;;;;;16.27;11.00;;;;;;;;;;4995711;28;20022;-78
2023/01/08 11:55:49;;;;;;;15.43;11.07;;;;;;;;;;4994217;28;20073;-77
2023/01/08 11:58:15;;;;;;;15.32;10.93;;;;;;;;;;4994531;28;20034;-77
2023/01/08 12:01:00;;;;;;;16.25;11.60;;;;;;;;;;4993319;28;20400;-77
2023/01/08 12:03:45;;;;;;;16.13;11.20;;;;;;;;;;4993509;28;20102;-77
2023/01/08 12:06:20;;;;;;;13.80;10.20;;;;;;;;;;4998576;28;20022;-76
2023/01/08 12:08:47;;;;;;;14.57;10.10;;;;;;;;;;4994544;28;20033;-77
2023/01/08 12:11:36;;;;;;;15.23;9.93;;;;;;;;;;4994821;28;20090;-78
2023/01/08 12:14:21;;;;;;;14.15;10.20;;;;;;;;;;4994714;28;20333;-77
2023/01/08 12:16:54;;;;;;;15.80;9.73;;;;;;;;;;4994622;28;20023;-77
2023/01/08 12:19:25;;;;;;;15.80;10.23;;;;;;;;;;4994901;28;20030;-76
2023/01/08 12:22:09;;;;;;;16.65;10.98;;;;;;;;;;4994494;28;20072;-77
2023/01/08 12:24:35;;;;;;;14.73;9.88;;;;;;;;;;4994846;28;20038;-77
2023/01/08 12:27:19;;;;;;;15.13;10.32;;;;;;;;;;4994687;28;20366;-77
2023/01/08 12:29:54;;;;;;;15.00;10.60;;;;;;;;;;4995140;28;20034;-76
2023/01/08 12:32:26;;;;;;;14.65;10.00;;;;;;;;;;4995467;28;20035;-77
2023/01/08 12:34:51;;;;;;;;;;;;;;;;;;4995280;28;20034;-78
2023/01/08 12:37:18;;;;;;;14.73;9.00;;;;;;;;;;4994371;28;19968;-77
2023/01/08 12:39:49;;;;;;;17.98;9.98;;;;;;;;;;4993181;28;20037;-77
2023/01/08 12:42:17;;;;;;;13.98;9.30;;;;;;;;;;4994231;28;20023;-77
2023/01/08 12:44:45;;;;;;;13.95;9.30;;;;;;;;;;4995183;28;20049;-79
2023/01/08 12:47:15;;;;;;;13.32;8.43;;;;;;;;;;4995503;28;20022;-78
2023/01/08 12:49:53;;;;;;;10.23;7.53;;;;;;;;;;4993970;28;20026;-78
2023/01/08 12:52:24;;;;;;;11.90;7.40;;;;;;;;;;4993845;28;20054;-78
2023/01/08 12:54:50;;;;;;;;;;;;;;;;;;4995024;28;20050;-77
2023/01/08 12:57:21;;;;;;;12.32;8.05;;;;;;;;;;4994339;28;19952;-78
2023/01/08 13:00:06;;;;;;;12.95;8.98;;;;;;;;;;4993667;28;20491;-77
2023/01/08 13:02:37;;;;;;;10.18;7.18;;;;;;;;;;4994630;28;20165;-78
2023/01/08 13:05:11;;;;;;;13.88;8.45;;;;;;;;;;4994515;28;20101;-77
2023/01/08 13:07:44;;;;;;;12.40;7.97;;;;;;;;;;4993502;28;20080;-77
2023/01/08 13:10:33;;;;;;;11.93;8.48;;;;;;;;;;4993687;28;20046;-77
2023/01/08 13:13:00;;;;;;;14.07;7.88;;;;;;;;;;4971042;28;20034;-76
2023/01/08 13:15:27;;;;;;;16.08;8.82;;;;;;;;;;4993513;28;20034;-76
2023/01/08 13:17:54;;;;;;;12.85;9.13;;;;;;;;;;4993356;28;20027;-76
2023/01/08 13:20:27;;;;;;;14.20;9.63;;;;;;;;;;4993808;28;20058;-77
2023/01/08 13:22:54;;;;;;;13.82;9.13;;;;;;;;;;4993669;28;20550;-75
2023/01/08 13:25:20;;;;;;;13.48;9.30;;;;;;;;;;4993169;28;20500;-76
2023/01/08 13:27:47;;;;;;;14.93;9.88;;;;;;;;;;4993432;28;20037;-76
2023/01/08 13:30:31;;;;;;;19.17;10.27;;;;;;;;;;4993297;28;20027;-76
2023/01/08 13:32:57;;;;;;;16.58;10.85;;;;;;;;;;4992376;28;20161;-76
2023/01/08 13:35:33;;;;;;;14.18;10.35;;;;;;;;;;4993639;28;20069;-76
2023/01/08 13:38:13;;;;;;;15.85;10.68;;;;;;;;;;4994136;28;20033;-79
2023/01/08 13:40:39;;;;;;;14.07;9.70;;;;;;;;;;4992744;28;20508;-76
2023/01/08 13:43:18;;;;;;;15.23;11.05;;;;;;;;;;4992576;28;20023;-76
2023/01/08 13:54:29;;;;;;;14.43;8.52;;;;;;;;;;5118264;22;20034;-77
2023/01/08 13:57:02;;;;;;;15.93;9.43;;;;;;;;;;5032270;28;20025;-76
2023/01/08 13:59:28;;;;;;;15.43;8.85;;;;;;;;;;5031643;28;20025;-76
2023/01/08 14:01:55;;;;;;;16.88;9.32;;;;;;;;;;5032037;28;20074;-77
2023/01/08 14:04:21;;;;;;;13.65;8.82;;;;;;;;;;5032020;28;20033;-75
2023/01/08 14:06:48;;;;;;;14.73;8.45;;;;;;;;;;5057572;22;20041;-73
2023/01/08 14:09:21;;;;;;;15.30;9.32;;;;;;;;;;5050894;28;20029;-72
2023/01/08 14:11:49;;;;;;;15.93;9.77;;;;;;;;;;5051873;28;20017;-73
2023/01/08 14:14:16;;;;;;;13.50;9.27;;;;;;;;;;5051861;28;20021;-73
2023/01/08 14:16:42;;;;;;;14.93;10.07;;;;;;;;;;5051831;28;20017;-74
2023/01/08 14:19:12;;;;;;;16.20;10.13;;;;;;;;;;5052488;28;20021;-74
2023/01/08 14:21:38;;;;;;;17.17;10.32;;;;;;;;;;5069079;28;20037;-75
2023/01/08 14:24:05;;;;;;;17.98;11.57;;;;;;;;;;5071697;28;20025;-74
2023/01/08 14:26:35;;;;;;;18.58;11.45;;;;;;;;;;5071694;28;20028;-75
2023/01/08 14:29:02;;;;;;;19.20;12.57;;;;;;;;;;5055518;28;20021;-72
2023/01/08 14:31:29;;;;;;;19.48;11.68;;;;;;;;;;5051705;28;20033;-75
2023/01/08 14:33:56;;;;;;;25.50;13.43;;;;;;;;;;5052117;28;20025;-73